Time;durP1;ratioP1;P1;durP2;ratioP2;P2;SDS_P1;SDS_P2;PMS_P1;PMS_P2;Temp;Humidity;BMP_temperature;BMP_pressure;BME280_temperature;BME280_humidity;BME280_pressure;Samples;Min_cycle;Max_cycle;Signal;HPM_P1;HPM_P2
2022/06/14 00:03:10;;;;;;;0.10;0.10;;;13.20;99.90;;;;;;5073596;28;20216;-70
2022/06/14 00:05:43;;;;;;;0.10;0.10;;;13.10;99.90;;;;;;5063159;28;20190;-68
2022/06/14 00:08:12;;;;;;;0.10;0.10;;;12.80;1.00;;;;;;5071109;28;20202;-68
2022/06/14 00:10:41;;;;;;;0.10;0.10;;;12.80;1.00;;;;;;5072618;28;20198;-68
2022/06/14 00:13:10;;;;;;;0.10;0.10;;;12.80;1.00;;;;;;5074324;28;20589;-68
2022/06/14 00:15:38;;;;;;;0.10;0.10;;;12.80;1.00;;;;;;5073539;28;20220;-68
2022/06/14 00:18:06;;;;;;;0.10;0.10;;;12.90;10.60;;;;;;5072875;28;20202;-68
2022/06/14 00:20:34;;;;;;;0.00;0.00;;;12.90;1.00;;;;;;5074031;28;20216;-68
2022/06/14 00:23:04;;;;;;;0.10;0.10;;;12.90;93.60;;;;;;5074118;28;20703;-69
2022/06/14 00:25:36;;;;;;;0.00;0.00;;;12.80;99.90;;;;;;5073313;28;20259;-68
2022/06/14 00:28:05;;;;;;;0.10;0.10;;;12.80;99.90;;;;;;5072635;28;20217;-68
2022/06/14 00:30:33;;;;;;;0.10;0.10;;;12.70;99.90;;;;;;5074014;28;20541;-68
2022/06/14 00:33:02;;;;;;;0.10;0.10;;;12.70;99.90;;;;;;5074131;28;20251;-68
2022/06/14 00:35:29;;;;;;;0.10;0.10;;;12.60;1.00;;;;;;5071255;28;20264;-68
2022/06/14 00:37:58;;;;;;;0.10;0.10;;;12.40;1.00;;;;;;5072544;28;20635;-68
2022/06/14 00:40:30;;;;;;;0.10;0.10;;;12.30;1.00;;;;;;5073054;28;20247;-68
2022/06/14 00:43:02;;;;;;;0.10;0.10;;;12.40;1.00;;;;;;5071846;28;20270;-68
2022/06/14 00:46:07;;;;;;;0.10;0.10;;;12.40;1.00;;;;;;5073217;28;20209;-68
2022/06/14 00:48:36;;;;;;;0.10;0.10;;;12.40;1.00;;;;;;5067687;28;20225;-67
2022/06/14 00:51:09;;;;;;;0.00;0.00;;;12.50;1.00;;;;;;5072727;28;20241;-67
2022/06/14 00:53:43;;;;;;;0.10;0.10;;;12.50;1.00;;;;;;5086042;22;20268;-67
2022/06/14 00:56:17;;;;;;;0.10;0.10;;;12.60;1.00;;;;;;5072917;28;20201;-66
2022/06/14 00:58:51;;;;;;;0.10;0.10;;;12.30;75.50;;;;;;5066886;28;20201;-66
2022/06/14 01:01:23;;;;;;;0.10;0.10;;;12.20;99.90;;;;;;5070003;28;20251;-66
2022/06/14 01:03:56;;;;;;;0.10;0.10;;;12.20;99.90;;;;;;5039253;28;20198;-67
2022/06/14 01:06:32;;;;;;;0.10;0.10;;;12.20;99.90;;;;;;5052069;28;20587;-67
2022/06/14 01:09:05;;;;;;;0.10;0.10;;;12.20;99.90;;;;;;5049773;28;20684;-67
2022/06/14 01:11:39;;;;;;;0.10;0.10;;;12.20;99.90;;;;;;5052474;28;20205;-67
2022/06/14 01:14:10;;;;;;;0.10;0.10;;;12.30;99.90;;;;;;5052426;28;20198;-66
2022/06/14 01:16:38;;;;;;;0.00;0.00;;;12.20;99.90;;;;;;5051029;28;20190;-67
2022/06/14 01:19:12;;;;;;;0.03;0.03;;;12.20;1.00;;;;;;5051973;28;20354;-70
2022/06/14 01:21:40;;;;;;;0.10;0.10;;;12.30;99.90;;;;;;5050376;28;20217;-67
2022/06/14 01:24:09;;;;;;;0.10;0.10;;;12.20;1.00;;;;;;5051011;28;20557;-68
2022/06/14 01:26:37;;;;;;;0.10;0.10;;;12.30;1.00;;;;;;5044654;28;20214;-68
2022/06/14 01:29:06;;;;;;;0.10;0.10;;;12.30;1.00;;;;;;5052795;28;20198;-68
2022/06/14 01:31:34;;;;;;;0.10;0.10;;;12.30;1.00;;;;;;5042694;28;20195;-67
2022/06/14 01:34:07;;;;;;;0.10;0.10;;;12.20;1.00;;;;;;5048150;28;20278;-67
2022/06/14 01:36:39;;;;;;;0.10;0.10;;;12.10;1.00;;;;;;5042658;28;20277;-68
2022/06/14 01:39:11;;;;;;;0.00;0.00;;;12.10;1.00;;;;;;5039051;28;20195;-67
2022/06/14 01:41:53;;;;;;;0.10;0.10;;;12.20;1.00;;;;;;5049365;28;20265;-67
2022/06/14 01:44:39;;;;;;;0.10;0.10;;;12.10;1.00;;;;;;5047432;28;20602;-67
2022/06/14 01:47:21;;;;;;;0.10;0.10;;;11.90;1.00;;;;;;5047490;28;20287;-68
2022/06/14 01:52:56;;;;;;;0.10;0.10;;;11.50;1.00;;;;;;5051144;28;20244;-67
2022/06/14 01:55:35;;;;;;;0.10;0.10;;;11.40;1.00;;;;;;5050058;28;20206;-67
2022/06/14 01:58:10;;;;;;;0.10;0.10;;;11.40;1.00;;;;;;5049012;28;20198;-67
2022/06/14 02:00:49;;;;;;;0.10;0.10;;;11.50;1.00;;;;;;5050435;28;20236;-67
2022/06/14 02:06:18;;;;;;;0.10;0.10;;;11.60;1.00;;;;;;5047990;28;20746;-67
2022/06/14 02:08:53;;;;;;;0.10;0.10;;;11.50;1.00;;;;;;5051104;28;20823;-67
2022/06/14 02:11:28;;;;;;;0.10;0.10;;;11.40;1.00;;;;;;5051609;28;20197;-67
2022/06/14 02:14:03;;;;;;;0.10;0.10;;;11.30;58.50;;;;;;5043333;28;20587;-67
2022/06/14 02:16:34;;;;;;;0.10;0.10;;;11.40;99.90;;;;;;5050026;28;20198;-67
2022/06/14 02:19:07;;;;;;;0.10;0.10;;;11.30;99.90;;;;;;5050819;28;20202;-67
2022/06/14 02:21:41;;;;;;;0.03;0.03;;;11.30;99.90;;;;;;5051174;28;20202;-67
2022/06/14 02:24:16;;;;;;;0.10;0.10;;;11.30;99.90;;;;;;5051314;28;20194;-68
2022/06/14 02:26:48;;;;;;;0.10;0.10;;;11.30;99.90;;;;;;5034789;28;20194;-67
2022/06/14 02:29:21;;;;;;;0.10;0.10;;;11.40;99.90;;;;;;5051198;28;20186;-67
2022/06/14 02:31:57;;;;;;;0.10;0.10;;;11.40;99.90;;;;;;5048817;28;20272;-68
2022/06/14 02:34:30;;;;;;;0.10;0.10;;;11.20;99.90;;;;;;5051175;28;20691;-66
2022/06/14 02:37:05;;;;;;;0.00;0.00;;;11.10;99.90;;;;;;5044692;28;20488;-67
2022/06/14 02:39:37;;;;;;;0.10;0.10;;;11.20;99.90;;;;;;5048489;28;20195;-67
2022/06/14 02:42:13;;;;;;;0.10;0.10;;;11.20;99.90;;;;;;5045291;28;20502;-67
2022/06/14 02:44:46;;;;;;;0.00;0.00;;;11.00;99.90;;;;;;5050803;28;20210;-66
2022/06/14 02:47:19;;;;;;;0.10;0.10;;;11.10;99.90;;;;;;5048388;28;20221;-67
2022/06/14 02:49:52;;;;;;;0.10;0.10;;;11.10;99.90;;;;;;5043742;28;20210;-67
2022/06/14 02:52:25;;;;;;;0.10;0.10;;;10.90;99.90;;;;;;5043612;28;20230;-66
2022/06/14 02:54:59;;;;;;;0.10;0.10;;;10.80;1.00;;;;;;5036286;28;20206;-67
2022/06/14 02:57:38;;;;;;;0.10;0.10;;;10.70;1.00;;;;;;5040283;28;20195;-67
2022/06/14 03:00:11;;;;;;;0.10;0.10;;;10.60;1.00;;;;;;5047799;28;20750;-67
2022/06/14 03:02:44;;;;;;;0.10;0.10;;;10.60;1.00;;;;;;5041016;28;20264;-66
2022/06/14 03:05:20;;;;;;;0.10;0.10;;;10.70;1.00;;;;;;5046484;28;20609;-67
2022/06/14 03:07:51;;;;;;;0.10;0.10;;;10.80;1.00;;;;;;5049969;28;20247;-67
2022/06/14 03:10:20;;;;;;;0.00;0.00;;;10.70;1.00;;;;;;5047570;28;20202;-67
2022/06/14 03:13:02;;;;;;;0.00;0.00;;;10.70;1.00;;;;;;5048402;28;20405;-65
2022/06/14 03:15:38;;;;;;;0.10;0.10;;;10.80;1.00;;;;;;5055208;28;20199;-66
2022/06/14 03:18:18;;;;;;;0.10;0.10;;;10.80;1.00;;;;;;5049342;28;20194;-66
2022/06/14 03:20:53;;;;;;;0.10;0.10;;;10.70;1.00;;;;;;5036111;28;20519;-68
2022/06/14 03:23:28;;;;;;;0.10;0.10;;;10.60;1.00;;;;;;5042553;28;20221;-66
2022/06/14 03:26:02;;;;;;;0.10;0.10;;;10.50;1.00;;;;;;5050505;28;20198;-68
2022/06/14 03:28:42;;;;;;;0.10;0.10;;;10.50;1.00;;;;;;5044776;28;20222;-67
2022/06/14 03:31:16;;;;;;;0.10;0.10;;;10.50;1.00;;;;;;5050397;28;20198;-67
2022/06/14 03:33:47;;;;;;;0.10;0.10;;;10.50;1.00;;;;;;5043979;28;20704;-67
2022/06/14 03:36:17;;;;;;;0.10;0.10;;;10.60;1.00;;;;;;5054209;28;20205;-67
2022/06/14 03:38:52;;;;;;;0.10;0.10;;;10.50;1.00;;;;;;5053267;28;20186;-67
2022/06/14 03:41:24;;;;;;;0.10;0.10;;;10.60;1.00;;;;;;5048755;28;20190;-67
2022/06/14 03:43:56;;;;;;;0.10;0.10;;;10.50;1.00;;;;;;5048785;28;21541;-67
2022/06/14 03:46:29;;;;;;;0.10;0.10;;;10.70;1.00;;;;;;5049466;28;20289;-66
2022/06/14 03:49:02;;;;;;;0.10;0.10;;;10.60;1.00;;;;;;5053766;28;20222;-66
2022/06/14 03:51:40;;;;;;;0.10;0.10;;;10.70;1.00;;;;;;5052113;28;20202;-67
2022/06/14 03:54:33;;;;;;;0.10;0.10;;;10.80;1.00;;;;;;5050773;28;20198;-66
2022/06/14 03:57:12;;;;;;;0.10;0.10;;;10.80;1.00;;;;;;5044900;28;20206;-67
2022/06/14 04:00:05;;;;;;;0.10;0.10;;;11.00;1.00;;;;;;5054047;28;20195;-66
2022/06/14 04:02:55;;;;;;;0.10;0.10;;;11.00;1.00;;;;;;5047277;28;20219;-66
2022/06/14 04:05:50;;;;;;;0.10;0.10;;;10.90;1.00;;;;;;5048779;28;20228;-66
2022/06/14 04:08:31;;;;;;;0.10;0.10;;;10.80;1.00;;;;;;5051947;28;20202;-67
2022/06/14 04:11:13;;;;;;;0.10;0.10;;;10.70;1.00;;;;;;5050679;28;20269;-66
2022/06/14 04:13:46;;;;;;;0.10;0.10;;;10.70;1.00;;;;;;5050003;28;20210;-66
2022/06/14 04:16:29;;;;;;;0.10;0.10;;;10.80;1.00;;;;;;5047632;28;20202;-67
2022/06/14 04:19:03;;;;;;;0.10;0.10;;;10.70;1.00;;;;;;5053717;28;20252;-66
2022/06/14 04:21:38;;;;;;;0.10;0.10;;;10.70;1.00;;;;;;5053451;28;20202;-66
2022/06/14 04:24:16;;;;;;;0.10;0.10;;;10.60;1.00;;;;;;5048617;28;20207;-68
2022/06/14 04:26:49;;;;;;;0.10;0.10;;;10.70;1.00;;;;;;5032373;28;20616;-67
2022/06/14 04:29:25;;;;;;;0.10;0.10;;;10.70;1.00;;;;;;5051274;28;20226;-66
2022/06/14 04:32:00;;;;;;;0.10;0.10;;;10.90;1.00;;;;;;5051833;28;20453;-66
2022/06/14 04:34:34;;;;;;;0.10;0.10;;;11.00;1.00;;;;;;5047015;28;20252;-66
2022/06/14 04:37:07;;;;;;;0.00;0.00;;;11.00;1.00;;;;;;5047304;28;20604;-66
2022/06/14 04:39:37;;;;;;;0.10;0.10;;;11.10;1.00;;;;;;5047130;28;20583;-66
2022/06/14 04:42:09;;;;;;;0.10;0.10;;;11.20;1.00;;;;;;5032090;28;20214;-66
2022/06/14 04:44:44;;;;;;;0.10;0.10;;;11.20;1.00;;;;;;5038513;28;20215;-65
2022/06/14 04:47:18;;;;;;;0.10;0.10;;;11.10;1.00;;;;;;5036000;28;20602;-65
2022/06/14 04:49:51;;;;;;;0.10;0.10;;;11.10;1.00;;;;;;5052356;28;20279;-66
2022/06/14 04:52:24;;;;;;;0.10;0.10;;;11.00;1.00;;;;;;5045588;28;20230;-65
2022/06/14 04:54:58;;;;;;;0.10;0.10;;;11.20;1.00;;;;;;5046150;28;20823;-67
2022/06/14 04:57:34;;;;;;;0.10;0.10;;;11.30;1.00;;;;;;5044927;28;20205;-66
2022/06/14 05:00:08;;;;;;;0.10;0.10;;;11.40;1.00;;;;;;5034439;28;20657;-66
2022/06/14 05:02:39;;;;;;;0.10;0.10;;;11.60;1.00;;;;;;5051574;28;20712;-66
2022/06/14 05:05:11;;;;;;;0.10;0.10;;;11.60;1.00;;;;;;5045857;28;20241;-67
2022/06/14 05:07:44;;;;;;;0.10;0.10;;;11.70;1.00;;;;;;5050593;28;20202;-65
2022/06/14 05:10:16;;;;;;;0.10;0.10;;;11.60;1.00;;;;;;5051335;28;20233;-66
2022/06/14 05:12:49;;;;;;;0.05;0.05;;;11.70;1.00;;;;;;5038945;28;20663;-66
2022/06/14 05:15:21;;;;;;;0.10;0.10;;;11.80;1.00;;;;;;5045926;28;20661;-66
2022/06/14 05:17:54;;;;;;;0.10;0.10;;;11.80;1.00;;;;;;5044010;28;20210;-66
2022/06/14 05:20:28;;;;;;;0.08;0.08;;;11.80;1.00;;;;;;5052843;28;20190;-67
2022/06/14 05:23:02;;;;;;;0.10;0.10;;;11.90;1.00;;;;;;5052354;28;20222;-66
2022/06/14 05:25:48;;;;;;;0.10;0.10;;;12.00;1.00;;;;;;5050918;28;20193;-66
2022/06/14 05:28:25;;;;;;;0.10;0.10;;;12.10;1.00;;;;;;5049683;28;20198;-67
2022/06/14 05:30:56;;;;;;;0.10;0.10;;;11.90;1.00;;;;;;5052439;28;20636;-66
2022/06/14 05:33:38;;;;;;;0.10;0.10;;;12.00;1.00;;;;;;5051694;28;20222;-66
2022/06/14 05:36:12;;;;;;;0.10;0.10;;;12.10;1.00;;;;;;5051555;28;20677;-66
2022/06/14 05:38:48;;;;;;;0.10;0.10;;;12.20;1.00;;;;;;5051195;28;20190;-66
2022/06/14 05:41:19;;;;;;;0.10;0.10;;;12.30;1.00;;;;;;5052711;28;20194;-66
2022/06/14 05:43:50;;;;;;;0.10;0.10;;;12.40;1.00;;;;;;5046447;28;20272;-66
2022/06/14 05:46:25;;;;;;;0.10;0.10;;;12.50;1.00;;;;;;5052424;28;20194;-65
2022/06/14 05:49:02;;;;;;;0.10;0.10;;;12.70;1.00;;;;;;5051509;28;20221;-66
2022/06/14 05:51:36;;;;;;;0.10;0.10;;;12.80;1.00;;;;;;5051800;28;20584;-66
2022/06/14 05:54:10;;;;;;;0.00;0.00;;;12.80;99.90;;;;;;5051409;28;20205;-66
2022/06/14 05:56:43;;;;;;;0.00;0.00;;;12.90;99.90;;;;;;5051610;28;20669;-66
2022/06/14 05:59:20;;;;;;;0.10;0.10;;;12.80;99.90;;;;;;5051762;28;20556;-68
2022/06/14 06:01:54;;;;;;;0.00;0.00;;;12.90;99.90;;;;;;5047997;28;20225;-65
2022/06/14 06:04:31;;;;;;;0.10;0.10;;;13.00;99.90;;;;;;5050543;28;20252;-66
2022/06/14 06:07:02;;;;;;;0.10;0.10;;;13.00;99.90;;;;;;5041007;28;20202;-65
2022/06/14 06:09:34;;;;;;;0.05;0.05;;;13.20;99.90;;;;;;5051450;28;20263;-65
2022/06/14 06:12:08;;;;;;;0.00;0.00;;;13.40;32.20;;;;;;5052268;28;20244;-65
2022/06/14 06:14:39;;;;;;;0.00;0.00;;;13.40;1.00;;;;;;5049768;28;20281;-66
2022/06/14 06:17:11;;;;;;;0.10;0.10;;;13.40;1.00;;;;;;5051699;28;20264;-65
2022/06/14 06:19:47;;;;;;;0.10;0.10;;;13.60;1.00;;;;;;5051168;28;20313;-65
2022/06/14 06:22:20;;;;;;;0.10;0.10;;;13.70;1.00;;;;;;5031787;28;20230;-65
2022/06/14 06:24:52;;;;;;;0.00;0.00;;;13.80;1.00;;;;;;5040667;28;20198;-65
2022/06/14 06:27:27;;;;;;;0.00;0.00;;;13.90;1.00;;;;;;5051104;28;20201;-67
2022/06/14 06:29:59;;;;;;;0.00;0.00;;;13.90;1.00;;;;;;5051042;28;20771;-67
2022/06/14 06:32:31;;;;;;;0.00;0.00;;;14.00;1.00;;;;;;5051169;28;20222;-67
2022/06/14 06:35:03;;;;;;;0.00;0.00;;;14.10;99.90;;;;;;5051419;28;20267;-67
2022/06/14 06:37:38;;;;;;;0.00;0.00;;;14.20;99.90;;;;;;5050938;28;20236;-67
2022/06/14 06:40:11;;;;;;;0.10;0.10;;;14.40;99.90;;;;;;5051523;28;20244;-66
2022/06/14 06:42:42;;;;;;;0.10;0.10;;;14.60;99.90;;;;;;5050744;28;20210;-67
2022/06/14 06:45:18;;;;;;;0.10;0.10;;;14.70;1.00;;;;;;5049949;28;20194;-66
2022/06/14 06:47:50;;;;;;;0.10;0.10;;;14.90;1.00;;;;;;5050497;28;20205;-66
2022/06/14 06:50:23;;;;;;;0.00;0.00;;;15.00;1.00;;;;;;5051461;28;20226;-65
2022/06/14 06:52:59;;;;;;;0.00;0.00;;;15.30;99.90;;;;;;5084954;22;20237;-68
2022/06/14 06:55:47;;;;;;;0.10;0.10;;;15.50;99.90;;;;;;5069549;28;20197;-68
2022/06/14 06:58:23;;;;;;;0.10;0.10;;;15.70;1.00;;;;;;5069866;28;20541;-68
2022/06/14 07:00:54;;;;;;;0.10;0.10;;;15.80;30.20;;;;;;5071473;28;20194;-68
2022/06/14 07:03:30;;;;;;;0.00;0.00;;;15.80;1.00;;;;;;5071405;28;20217;-68
2022/06/14 07:06:03;;;;;;;0.00;0.00;;;15.90;1.00;;;;;;5070860;28;20671;-68
2022/06/14 07:08:40;;;;;;;0.00;0.00;;;16.00;1.00;;;;;;5071138;28;20209;-68
2022/06/14 07:11:14;;;;;;;0.00;0.00;;;16.30;99.90;;;;;;5071355;28;20228;-68
2022/06/14 07:13:49;;;;;;;0.00;0.00;;;16.50;1.00;;;;;;5051417;28;20210;-69
2022/06/14 07:16:22;;;;;;;0.00;0.00;;;16.70;99.90;;;;;;5072143;28;20201;-69
2022/06/14 07:18:54;;;;;;;0.03;0.03;;;16.70;1.00;;;;;;5070687;28;20278;-68
2022/06/14 07:21:29;;;;;;;0.00;0.00;;;16.90;1.00;;;;;;5051335;28;20539;-68
2022/06/14 07:24:02;;;;;;;0.00;0.00;;;16.80;1.00;;;;;;5062627;28;20216;-68
2022/06/14 07:26:34;;;;;;;0.00;0.00;;;16.80;1.00;;;;;;5068464;28;20212;-68
2022/06/14 07:29:06;;;;;;;0.00;0.00;;;16.90;1.00;;;;;;5070492;28;20219;-68
2022/06/14 07:31:39;;;;;;;0.00;0.00;;;17.00;1.00;;;;;;5072254;28;20229;-68
2022/06/14 07:34:08;;;;;;;0.00;0.00;;;17.00;1.00;;;;;;5072083;28;20289;-68
2022/06/14 07:36:49;;;;;;;0.03;0.03;;;17.00;17.10;;;;;;5070426;28;20263;-68
2022/06/14 07:39:25;;;;;;;0.00;0.00;;;17.20;1.00;;;;;;5070714;28;20197;-68
2022/06/14 07:42:00;;;;;;;0.00;0.00;;;17.20;1.00;;;;;;5070677;28;20201;-68
2022/06/14 07:44:34;;;;;;;0.00;0.00;;;17.30;1.00;;;;;;5070466;28;20201;-68
2022/06/14 07:47:07;;;;;;;0.00;0.00;;;17.20;1.00;;;;;;5070648;28;20876;-68
2022/06/14 07:49:53;;;;;;;0.00;0.00;;;17.50;1.00;;;;;;5070196;28;20559;-68
2022/06/14 07:52:27;;;;;;;0.00;0.00;;;17.50;99.90;;;;;;5071123;28;20221;-68
2022/06/14 07:55:04;;;;;;;0.00;0.00;;;17.50;99.90;;;;;;5062993;28;20246;-68
2022/06/14 07:57:38;;;;;;;0.00;0.00;;;17.60;99.90;;;;;;5059917;28;20205;-68
2022/06/14 08:03:02;;;;;;;0.00;0.00;;;17.70;99.90;;;;;;5071342;28;20236;-68
2022/06/14 08:05:36;;;;;;;0.00;0.00;;;17.50;99.90;;;;;;5070732;28;20206;-68
2022/06/14 08:08:08;;;;;;;0.00;0.00;;;17.70;99.90;;;;;;5070277;28;20205;-68
2022/06/14 08:10:41;;;;;;;0.00;0.00;;;17.90;99.90;;;;;;5064581;28;20719;-68
2022/06/14 08:13:14;;;;;;;0.00;0.00;;;18.00;99.90;;;;;;5063673;28;20222;-68
2022/06/14 08:15:50;;;;;;;0.00;0.00;;;17.90;99.90;;;;;;5070950;28;20201;-68
2022/06/14 08:18:23;;;;;;;0.00;0.00;;;17.70;99.90;;;;;;5053002;28;20256;-68
2022/06/14 08:20:55;;;;;;;0.00;0.00;;;17.90;99.90;;;;;;5064201;28;20209;-68
2022/06/14 08:23:30;;;;;;;0.00;0.00;;;18.20;99.90;;;;;;5054637;28;20219;-68
2022/06/14 08:26:05;;;;;;;0.00;0.00;;;18.50;99.90;;;;;;5071607;28;20200;-68
2022/06/14 08:28:38;;;;;;;0.00;0.00;;;18.30;99.90;;;;;;5068589;28;20251;-68
2022/06/14 08:31:12;;;;;;;0.00;0.00;;;18.40;99.90;;;;;;5063003;28;20274;-68
2022/06/14 08:33:49;;;;;;;0.00;0.00;;;18.40;99.90;;;;;;5075015;28;20253;-68
2022/06/14 08:36:21;;;;;;;0.00;0.00;;;18.50;99.90;;;;;;5071692;28;20208;-68
2022/06/14 08:38:55;;;;;;;0.00;0.00;;;18.50;99.90;;;;;;5070585;28;20216;-68
2022/06/14 08:41:48;;;;;;;0.00;0.00;;;18.50;99.90;;;;;;5070871;28;20252;-68
2022/06/14 08:44:20;;;;;;;0.00;0.00;;;18.90;99.90;;;;;;5072838;28;20194;-68
2022/06/14 08:47:02;;;;;;;0.00;0.00;;;19.10;99.90;;;;;;5073447;28;20235;-68
2022/06/14 08:49:43;;;;;;;0.00;0.00;;;19.20;99.90;;;;;;5074325;28;20189;-68
2022/06/14 08:52:45;;;;;;;0.00;0.00;;;19.10;99.90;;;;;;5074245;28;20629;-68
2022/06/14 08:55:40;;;;;;;0.00;0.00;;;19.30;99.90;;;;;;5074097;28;20208;-68
2022/06/14 08:58:37;;;;;;;0.00;0.00;;;19.10;99.90;;;;;;5073504;28;20697;-68
2022/06/14 09:01:16;;;;;;;0.00;0.00;;;18.80;99.90;;;;;;5047584;28;20198;-68
2022/06/14 09:04:13;;;;;;;0.00;0.00;;;18.70;99.90;;;;;;5073440;28;20232;-68
2022/06/14 09:07:20;;;;;;;0.00;0.00;;;18.80;99.90;;;;;;5072359;28;20236;-68
2022/06/14 09:10:16;;;;;;;0.00;0.00;;;19.10;99.90;;;;;;5072277;28;20205;-69
2022/06/14 09:13:05;;;;;;;0.00;0.00;;;19.50;99.90;;;;;;5072849;28;20263;-69
2022/06/14 09:15:58;;;;;;;0.00;0.00;;;19.90;99.90;;;;;;5072966;28;20284;-68
2022/06/14 09:18:39;;;;;;;0.00;0.00;;;20.00;99.40;;;;;;5071750;28;20210;-68
2022/06/14 09:21:17;;;;;;;0.00;0.00;;;20.20;99.40;;;;;;5073264;28;20240;-69
2022/06/14 09:24:12;;;;;;;0.00;0.00;;;20.00;98.50;;;;;;5057078;28;20636;-68
2022/06/14 09:26:48;;;;;;;0.00;0.00;;;19.60;98.60;;;;;;5072831;28;20263;-68
2022/06/14 09:29:46;;;;;;;0.00;0.00;;;19.50;98.70;;;;;;5072787;28;20197;-68
2022/06/14 09:35:49;;;;;;;0.00;0.00;;;20.10;98.30;;;;;;5072798;28;20260;-69
2022/06/14 09:38:41;;;;;;;0.00;0.00;;;20.40;98.00;;;;;;5071679;28;20205;-68
2022/06/14 09:41:23;;;;;;;0.00;0.00;;;20.60;97.70;;;;;;5072790;28;20236;-68
2022/06/14 09:44:10;;;;;;;0.00;0.00;;;20.70;97.50;;;;;;5070913;28;20253;-68
2022/06/14 09:47:01;;;;;;;0.00;0.00;;;20.50;97.20;;;;;;5071787;28;20201;-68
2022/06/14 09:50:07;;;;;;;0.00;0.00;;;20.60;97.60;;;;;;5071795;28;20236;-69
2022/06/14 09:53:21;;;;;;;0.00;0.00;;;20.80;97.40;;;;;;5070272;28;20232;-68
2022/06/14 09:56:11;;;;;;;0.00;0.00;;;20.90;96.10;;;;;;5009512;28;20212;-69
2022/06/14 09:59:24;;;;;;;0.00;0.00;;;20.80;96.50;;;;;;5066999;28;20278;-69
2022/06/14 10:02:03;;;;;;;0.00;0.00;;;21.00;95.70;;;;;;4989893;28;20753;-68
2022/06/14 10:04:58;;;;;;;0.00;0.00;;;21.20;95.10;;;;;;5055097;28;20225;-68
2022/06/14 10:07:39;;;;;;;0.00;0.00;;;21.10;95.10;;;;;;5071640;28;20206;-68
2022/06/14 10:10:33;;;;;;;0.00;0.00;;;21.20;95.80;;;;;;5072425;28;20232;-69
2022/06/14 10:13:29;;;;;;;0.00;0.00;;;21.40;94.60;;;;;;5071987;28;20718;-70
2022/06/14 10:16:05;;;;;;;0.00;0.00;;;21.60;94.30;;;;;;5071062;28;20285;-69
2022/06/14 10:18:57;;;;;;;0.00;0.00;;;21.70;93.90;;;;;;5071566;28;20197;-68
2022/06/14 10:21:32;;;;;;;0.00;0.00;;;21.60;93.20;;;;;;5072620;28;20190;-70
2022/06/14 10:24:08;;;;;;;0.00;0.00;;;21.60;93.60;;;;;;5071856;28;20279;-71
2022/06/14 10:29:47;;;;;;;0.00;0.00;;;21.90;91.60;;;;;;5070891;28;20201;-71
2022/06/14 10:32:38;;;;;;;0.00;0.00;;;22.00;91.00;;;;;;5071568;28;20221;-71
2022/06/14 10:35:14;;;;;;;0.00;0.00;;;21.80;90.80;;;;;;5074616;28;20582;-71
2022/06/14 10:38:06;;;;;;;0.00;0.00;;;21.90;91.30;;;;;;5066485;28;20256;-68
2022/06/14 10:40:44;;;;;;;0.00;0.00;;;22.40;90.90;;;;;;5051303;28;20194;-69
2022/06/14 10:43:20;;;;;;;0.00;0.00;;;22.80;90.00;;;;;;5065865;28;20241;-68
2022/06/14 10:46:08;;;;;;;0.00;0.00;;;23.10;88.80;;;;;;5072601;28;20211;-71
2022/06/14 10:49:04;;;;;;;0.00;0.00;;;22.90;87.60;;;;;;5072871;28;20227;-69
2022/06/14 10:51:51;;;;;;;0.00;0.00;;;23.10;88.10;;;;;;5078017;28;20213;-68
2022/06/14 10:54:27;;;;;;;0.00;0.00;;;23.30;86.30;;;;;;5070597;28;20206;-68
2022/06/14 10:57:26;;;;;;;0.00;0.00;;;23.30;87.90;;;;;;5073302;28;20209;-69
2022/06/14 11:00:18;;;;;;;0.00;0.00;;;23.60;86.80;;;;;;5069605;28;20258;-69
2022/06/14 11:03:02;;;;;;;0.00;0.00;;;24.00;86.80;;;;;;5067984;28;20271;-69
2022/06/14 11:05:42;;;;;;;0.00;0.00;;;24.30;86.40;;;;;;5063270;28;20194;-69
2022/06/14 11:08:31;;;;;;;0.00;0.00;;;24.60;85.30;;;;;;5065058;28;20193;-69
2022/06/14 11:11:17;;;;;;;0.00;0.00;;;24.70;84.60;;;;;;5062234;28;20193;-69
2022/06/14 11:13:54;;;;;;;0.00;0.00;;;24.90;84.30;;;;;;5066247;28;20615;-69
2022/06/14 11:16:29;;;;;;;0.00;0.00;;;24.90;83.90;;;;;;5063949;28;20193;-69
2022/06/14 11:19:26;;;;;;;0.00;0.00;;;25.00;82.80;;;;;;5064035;28;20556;-69
2022/06/14 11:22:08;;;;;;;0.00;0.00;;;24.70;82.40;;;;;;5068504;28;20204;-70
2022/06/14 11:24:46;;;;;;;0.00;0.00;;;23.80;84.00;;;;;;5060736;28;20205;-70
2022/06/14 11:27:22;;;;;;;0.00;0.00;;;24.10;84.60;;;;;;5070487;28;20194;-70
2022/06/14 11:30:00;;;;;;;0.00;0.00;;;24.30;85.00;;;;;;5070836;28;20208;-69
2022/06/14 11:32:32;;;;;;;0.00;0.00;;;24.70;84.10;;;;;;5070690;28;20279;-70
2022/06/14 11:35:12;;;;;;;0.00;0.00;;;25.00;83.30;;;;;;5071088;28;20194;-70
2022/06/14 11:38:06;;;;;;;0.00;0.00;;;24.40;82.30;;;;;;5062738;28;20201;-70
2022/06/14 11:40:42;;;;;;;0.00;0.00;;;24.70;82.80;;;;;;5060211;28;20198;-70
2022/06/14 11:43:27;;;;;;;0.00;0.00;;;25.10;81.80;;;;;;5064797;28;20221;-70
2022/06/14 11:46:00;;;;;;;0.00;0.00;;;25.30;81.50;;;;;;5065604;28;20214;-70
2022/06/14 11:48:35;;;;;;;0.00;0.00;;;25.50;81.70;;;;;;5065216;28;20206;-70
2022/06/14 11:51:13;;;;;;;0.00;0.00;;;25.50;80.00;;;;;;5063304;28;20205;-70
2022/06/14 11:53:51;;;;;;;0.00;0.00;;;25.70;79.70;;;;;;5066729;28;20214;-70
2022/06/14 11:56:29;;;;;;;0.00;0.00;;;25.70;79.20;;;;;;5065322;28;20243;-70
2022/06/14 11:59:18;;;;;;;0.00;0.00;;;25.80;78.80;;;;;;5071221;28;20205;-70
2022/06/14 12:01:59;;;;;;;0.00;0.00;;;25.60;79.20;;;;;;5074085;28;20251;-70
2022/06/14 12:04:43;;;;;;;0.00;0.00;;;25.80;78.30;;;;;;5059673;28;20197;-70
2022/06/14 12:07:21;;;;;;;0.00;0.00;;;25.90;77.90;;;;;;5074911;28;20232;-70
2022/06/14 12:10:07;;;;;;;0.00;0.00;;;26.00;78.20;;;;;;5074695;28;20202;-70
2022/06/14 12:12:57;;;;;;;0.00;0.00;;;26.20;77.20;;;;;;5073350;28;20232;-70
2022/06/14 12:15:34;;;;;;;0.00;0.00;;;26.30;76.50;;;;;;5074665;28;20190;-70
2022/06/14 12:18:07;;;;;;;0.00;0.00;;;26.30;77.10;;;;;;5073780;28;20548;-70
2022/06/14 12:20:41;;;;;;;0.00;0.00;;;26.10;75.80;;;;;;5072143;28;21303;-70
2022/06/14 12:23:15;;;;;;;0.00;0.00;;;25.30;75.90;;;;;;5069002;28;20221;-70
2022/06/14 12:28:43;;;;;;;0.00;0.00;;;24.80;77.00;;;;;;5067644;28;20625;-70
2022/06/14 12:31:23;;;;;;;0.00;0.00;;;24.50;77.80;;;;;;5054437;28;20194;-70
2022/06/14 12:33:54;;;;;;;0.00;0.00;;;24.90;77.60;;;;;;5068982;28;20255;-70
2022/06/14 12:36:32;;;;;;;0.00;0.00;;;25.30;76.80;;;;;;5073749;28;20205;-71
2022/06/14 12:39:05;;;;;;;0.00;0.00;;;25.60;75.50;;;;;;5073446;28;20255;-70
2022/06/14 12:41:38;;;;;;;0.00;0.00;;;25.90;74.90;;;;;;5072183;28;20202;-70
2022/06/14 12:44:41;;;;;;;0.00;0.00;;;26.10;73.80;;;;;;5053762;28;20214;-70
2022/06/14 12:47:15;;;;;;;0.00;0.00;;;26.00;72.30;;;;;;5061269;28;20198;-70
2022/06/14 12:49:48;;;;;;;0.00;0.00;;;25.60;73.40;;;;;;5073470;28;20664;-70
2022/06/14 12:52:22;;;;;;;0.00;0.00;;;25.60;74.00;;;;;;5098333;22;20724;-67
2022/06/14 12:54:56;;;;;;;0.00;0.00;;;25.90;73.80;;;;;;5052648;28;20206;-67
2022/06/14 12:57:37;;;;;;;0.00;0.00;;;26.00;72.50;;;;;;5053412;28;20660;-67
2022/06/14 13:00:12;;;;;;;0.00;0.00;;;26.00;72.70;;;;;;5053504;28;20198;-67
2022/06/14 13:02:49;;;;;;;0.00;0.00;;;26.00;72.60;;;;;;5052335;28;20589;-67
2022/06/14 13:05:21;;;;;;;0.00;0.00;;;26.10;72.30;;;;;;5052864;28;20304;-67
2022/06/14 13:07:59;;;;;;;0.00;0.00;;;26.10;71.80;;;;;;5052495;28;20206;-67
2022/06/14 13:10:42;;;;;;;0.00;0.00;;;25.80;72.20;;;;;;5053071;28;20194;-67
2022/06/14 13:13:27;;;;;;;0.00;0.00;;;26.10;71.90;;;;;;5052460;28;20221;-67
2022/06/14 13:16:04;;;;;;;0.00;0.00;;;26.30;72.00;;;;;;5051988;28;20206;-67
2022/06/14 13:18:48;;;;;;;0.00;0.00;;;25.70;71.60;;;;;;5052518;28;20256;-67
2022/06/14 13:21:25;;;;;;;0.00;0.00;;;25.70;72.40;;;;;;5050065;28;20203;-67
2022/06/14 13:24:05;;;;;;;0.00;0.00;;;25.60;72.20;;;;;;5051278;28;20214;-67
2022/06/14 13:26:42;;;;;;;0.00;0.00;;;25.50;73.30;;;;;;5050710;28;20198;-67
2022/06/14 13:29:26;;;;;;;0.00;0.00;;;25.80;73.20;;;;;;5049769;28;20196;-67
2022/06/14 13:32:27;;;;;;;0.00;0.00;;;26.00;72.80;;;;;;5051600;28;20280;-67
2022/06/14 13:35:05;;;;;;;0.00;0.00;;;25.50;71.70;;;;;;5030256;28;20576;-67
2022/06/14 13:37:44;;;;;;;0.00;0.00;;;25.70;72.30;;;;;;5051821;28;20198;-67
2022/06/14 13:40:19;;;;;;;0.00;0.00;;;25.90;71.30;;;;;;5052061;28;20198;-67
2022/06/14 13:42:54;;;;;;;0.00;0.00;;;26.00;70.90;;;;;;5051892;28;20248;-67
2022/06/14 13:45:31;;;;;;;0.00;0.00;;;25.90;71.20;;;;;;5052782;28;20239;-67
2022/06/14 13:48:08;;;;;;;0.00;0.00;;;26.00;71.10;;;;;;5050750;28;20213;-67
2022/06/14 13:50:41;;;;;;;0.00;0.00;;;26.10;71.20;;;;;;5051448;28;20190;-67
2022/06/14 13:53:15;;;;;;;0.00;0.00;;;26.00;71.00;;;;;;5041757;28;20710;-67
2022/06/14 13:55:47;;;;;;;0.00;0.00;;;26.00;71.10;;;;;;5042687;28;20213;-67
2022/06/14 13:58:20;;;;;;;0.00;0.00;;;26.00;71.10;;;;;;5042363;28;20203;-67
2022/06/14 14:00:59;;;;;;;0.00;0.00;;;26.10;71.80;;;;;;5044403;28;20289;-67
2022/06/14 14:03:36;;;;;;;0.00;0.00;;;25.90;70.90;;;;;;5051300;28;20249;-67